Startpagina
METAR-TAF:

METAR-TAF

Vliegvelden :

Luchthaven Warschau Frédéric Chopin

Warschau, Polen

breedte: 52-10N, lengte: 020-58E, hoogte: 106 m

Actueel weer

Dit bericht is 12 minuten geleden gemaakt, om 22:00 UTC
Wind 11 kt uit het noorden
Temperatuur 17°C
Vochtigheid 48%
Druk 1017 hPa
Zicht 10 km of meer
geen wolken onder 1500 m en geen cumulonimbus

METAR: EPWA 312200Z 01011KT CAVOK 17/06 Q1017 NOSIG

Tijdstip: 00:12 (22:12 UTC)

Verwachting

Dit bericht is 1 uur en het 42 minuten geleden gemaakt, om 20:30 UTC
Verwachting geldig van 31 om 21 UTC tot 01 om 21 UTC
Wind 10 kt uit het noordnoordoosten
Zicht 10 km of meer
geen wolken onder 1500 m en geen cumulonimbus
Kans 40% :
Tijdelijke
van 01 om 09 UTC tot 01 om 15 UTC
Wind 15 kt uit het noordnoordoosten met uitschieters tot 25 kt

TAF: EPWA 312030Z 3121/0121 02010KT CAVOK PROB40 TEMPO 0109/0115 02015G25KT

Waarnemingen en weersverwachtingen van meer dan 4000 vliegvelden (METAR en TAF).

De beschikbare stations zijn de gele en rode punten op de kaart.

Ga met uw muis naar het station om de naam te zien.

Klik dan om waarnemingen en weersverwachtingen te zien.

kaart wijzigen: klik op de groene knoppen met een zwart kruis om in te zoomen, op de groene knop met een streepje om uit te zoomen of op de groene pijlen voor aangrenzende kaarten.


METAR-TAF: